Time;durP1;ratioP1;P1;durP2;ratioP2;P2;SDS_P1;SDS_P2;PMS_P1;PMS_P2;Temp;Humidity;BMP_temperature;BMP_pressure;BME280_temperature;BME280_humidity;BME280_pressure;Samples;Min_cycle;Max_cycle;Signal;HPM_P1;HPM_P2
2023/08/30 00:02:15;;;;;;;;;3.67;3.67;;;;;18.86;57.01;100600.13;5063936;28;45450;-74
2023/08/30 00:04:42;;;;;;;;;6.33;6.33;;;;;18.88;57.06;100612.38;5073449;27;45500;-75
2023/08/30 00:07:07;;;;;;;;;7.00;6.00;;;;;18.92;56.95;100610.09;5055310;28;45516;-74
2023/08/30 00:09:32;;;;;;;;;5.00;5.00;;;;;18.32;56.58;100523.66;5055654;28;58559;-74
2023/08/30 00:11:57;;;;;;;;;5.67;5.67;;;;;18.82;57.39;100607.75;5057031;28;45437;-76
2023/08/30 00:14:23;;;;;;;;;7.67;5.33;;;;;18.01;57.26;100469.47;5057118;28;45538;-75
2023/08/30 00:16:48;;;;;;;;;4.33;4.33;;;;;18.51;57.39;100557.91;5072386;27;45508;-75
2023/08/30 00:19:13;;;;;;;;;5.00;5.00;;;;;18.61;57.46;100567.47;5056155;28;52856;-73
2023/08/30 00:21:39;;;;;;;;;5.00;5.00;;;;;18.74;57.53;100597.19;5056750;28;46174;-74
2023/08/30 00:24:05;;;;;;;;;6.67;5.33;;;;;18.67;57.65;100588.25;5057142;28;45372;-73
2023/08/30 00:26:31;;;;;;;;;3.00;3.00;;;;;18.68;57.80;100584.53;5057599;28;45418;-74
2023/08/30 00:28:56;;;;;;;;;7.33;5.00;;;;;18.34;57.37;100526.13;5057323;28;46486;-74
2023/08/30 00:31:21;;;;;;;;;5.33;5.33;;;;;18.70;57.75;100593.22;5058055;28;45337;-75
2023/08/30 00:33:49;;;;;;;;;8.00;5.33;;;;;18.65;57.92;100587.63;5072120;27;45431;-75
2023/08/30 00:36:14;;;;;;;;;5.00;4.00;;;;;18.64;57.84;100581.41;5056824;28;45470;-74
2023/08/30 00:38:39;;;;;;;;;3.67;3.67;;;;;18.55;57.60;100566.41;5056366;28;45544;-74
2023/08/30 00:41:05;;;;;;;;;6.67;6.67;;;;;18.63;57.73;100570.84;5056365;28;45516;-75
2023/08/30 00:43:30;;;;;;;;;2.33;2.33;;;;;18.64;57.69;100570.63;5056410;28;45210;-75
2023/08/30 00:45:56;;;;;;;;;5.33;3.33;;;;;18.52;57.68;100545.28;5074286;27;45326;-78
2023/08/30 00:48:22;;;;;;;;;5.00;5.00;;;;;18.62;56.91;100569.13;5056107;28;45814;-75
2023/08/30 00:50:48;;;;;;;;;6.33;6.33;;;;;18.01;57.66;100472.97;5056206;28;45266;-74
2023/08/30 00:53:14;;;;;;;;;5.67;5.00;;;;;18.58;57.73;100570.56;5057188;28;45271;-75
2023/08/30 00:55:41;;;;;;;;;4.33;4.00;;;;;18.45;57.83;100547.13;5056464;28;45640;-75
2023/08/30 00:58:08;;;;;;;;;5.33;4.67;;;;;18.55;57.54;100561.84;5056675;28;47676;-75
2023/08/30 01:00:33;;;;;;;;;5.33;5.00;;;;;18.21;57.62;100506.19;5056429;28;45522;-76
2023/08/30 01:02:59;;;;;;;;;6.33;4.67;;;;;18.27;57.63;100518.03;5054954;28;45518;-76
2023/08/30 01:05:25;;;;;;;;;4.67;4.67;;;;;18.52;57.77;100553.34;5056427;28;45590;-74
2023/08/30 01:07:53;;;;;;;;;7.00;5.67;;;;;18.50;57.65;100542.78;5058371;28;48281;-76
2023/08/30 01:10:25;;;;;;;;;4.33;4.33;;;;;18.42;57.64;100529.50;5076570;28;45312;-76
2023/08/30 01:12:58;;;;;;;;;6.00;6.00;;;;;18.57;57.64;100548.19;5068137;27;45404;-75
2023/08/30 01:15:26;;;;;;;;;5.67;5.67;;;;;18.15;57.45;100473.88;5059726;28;45549;-75
2023/08/30 01:17:54;;;;;;;;;5.33;5.33;;;;;18.64;57.58;100545.56;5061985;28;45624;-75
2023/08/30 01:20:23;;;;;;;;;10.00;7.33;;;;;18.62;57.23;100545.75;5064546;27;45509;-76
2023/08/30 01:22:57;;;;;;;;;5.00;5.00;;;;;18.65;57.23;100531.91;5060356;28;45390;-74
2023/08/30 01:25:44;;;;;;;;;6.00;6.00;;;;;18.69;57.29;100535.03;5060677;28;45427;-74
2023/08/30 01:28:10;;;;;;;;;4.00;4.00;;;;;18.63;57.11;100517.81;5071941;28;47788;-72
2023/08/30 01:30:40;;;;;;;;;6.67;5.00;;;;;18.64;56.95;100518.66;5055659;28;45423;-73
2023/08/30 01:33:06;;;;;;;;;5.67;5.00;;;;;18.70;57.08;100523.22;5059512;28;45324;-73
2023/08/30 01:35:35;;;;;;;;;3.00;3.00;;;;;18.72;56.91;100529.22;5057789;28;45269;-75
2023/08/30 01:38:03;;;;;;;;;3.67;3.67;;;;;18.72;56.75;100524.66;5058337;28;48071;-77
2023/08/30 01:40:30;;;;;;;;;4.00;4.00;;;;;18.75;56.79;100532.34;5058985;28;45592;-77
2023/08/30 01:42:58;;;;;;;;;4.00;4.00;;;;;18.65;56.74;100512.22;5059165;28;45425;-76
2023/08/30 01:45:23;;;;;;;;;4.00;4.00;;;;;18.76;56.65;100528.59;5059507;28;45460;-76
2023/08/30 01:47:52;;;;;;;;;8.00;7.00;;;;;18.73;56.84;100520.09;5059055;28;45434;-74
2023/08/30 01:50:20;;;;;;;;;5.67;4.00;;;;;18.65;56.87;100501.47;5059209;28;45410;-75
2023/08/30 01:52:46;;;;;;;;;4.00;4.00;;;;;18.66;57.04;100503.94;5060909;28;45567;-73
2023/08/30 01:55:14;;;;;;;;;5.67;5.67;;;;;18.72;56.90;100519.28;5070514;28;45227;-74
2023/08/30 01:57:40;;;;;;;;;5.00;5.00;;;;;18.72;57.17;100519.28;5064432;27;45639;-74
2023/08/30 02:00:06;;;;;;;;;3.00;3.00;;;;;18.70;57.06;100512.44;5074002;27;45970;-73
2023/08/30 02:02:33;;;;;;;;;6.00;5.00;;;;;18.65;57.17;100507.66;5059271;28;45311;-75
2023/08/30 02:04:58;;;;;;;;;3.00;3.00;;;;;18.53;57.18;100485.84;5067394;28;45324;-74
2023/08/30 02:07:37;;;;;;;;;4.67;4.00;;;;;18.66;57.02;100508.50;5082966;27;48389;-75
2023/08/30 02:10:08;;;;;;;;;4.67;4.00;;;;;17.95;56.74;100385.03;5065767;28;45549;-75
2023/08/30 02:12:45;;;;;;;;;3.00;3.00;;;;;18.60;56.95;100485.84;5058618;28;45311;-75
2023/08/30 02:15:13;;;;;;;;;5.00;5.00;;;;;18.52;57.01;100481.50;5068442;28;45536;-73
2023/08/30 02:17:38;;;;;;;;;4.00;4.00;;;;;18.62;57.01;100493.72;5067183;28;46332;-74
2023/08/30 02:20:05;;;;;;;;;3.00;2.00;;;;;18.54;57.04;100484.81;5059334;28;45364;-74
2023/08/30 02:22:31;;;;;;;;;6.00;6.00;;;;;18.67;56.88;100510.97;5090328;27;45398;-74
2023/08/30 02:24:57;;;;;;;;;3.00;2.33;;;;;18.55;57.04;100485.63;5065286;28;45286;-73
2023/08/30 02:27:23;;;;;;;;;4.67;4.67;;;;;18.60;56.88;100499.31;5068143;27;45738;-74
2023/08/30 02:29:48;;;;;;;;;3.67;3.67;;;;;18.63;57.20;100507.03;5058324;28;45415;-75
2023/08/30 02:32:14;;;;;;;;;5.00;4.00;;;;;18.35;57.27;100453.25;5073998;28;45278;-74
2023/08/30 02:34:40;;;;;;;;;4.00;4.00;;;;;18.59;57.30;100488.75;5058740;28;45260;-73
2023/08/30 02:37:05;;;;;;;;;6.00;5.00;;;;;18.62;57.21;100501.78;5058788;28;45568;-73
2023/08/30 02:39:31;;;;;;;;;3.00;3.00;;;;;18.55;57.02;100486.47;5058186;28;45470;-75
2023/08/30 02:41:56;;;;;;;;;4.00;3.67;;;;;18.64;56.99;100497.09;5088533;27;45541;-72
2023/08/30 02:44:21;;;;;;;;;5.00;4.67;;;;;18.60;57.10;100490.41;5078093;28;45168;-75
2023/08/30 02:46:47;;;;;;;;;3.00;3.00;;;;;18.58;57.12;100487.09;5074491;27;45800;-79
2023/08/30 02:49:13;;;;;;;;;4.67;3.00;;;;;18.60;57.21;100490.41;5057406;28;56064;-75
2023/08/30 02:51:38;;;;;;;;;2.00;1.00;;;;;18.21;57.53;100441.59;5073924;27;45435;-74
2023/08/30 02:54:04;;;;;;;;;4.00;4.00;;;;;18.48;57.55;100485.63;5088685;27;45498;-76
2023/08/30 02:56:29;;;;;;;;;4.00;3.00;;;;;18.28;57.38;100468.56;5058360;28;46299;-75
2023/08/30 02:58:54;;;;;;;;;3.67;3.67;;;;;18.36;57.65;100483.69;5073430;27;45371;-74
2023/08/30 03:01:20;;;;;;;;;5.00;5.00;;;;;18.15;57.78;100457.75;5058935;28;45426;-75
2023/08/30 03:03:46;;;;;;;;;4.00;4.00;;;;;18.33;57.28;100476.88;5056983;28;45590;-74
2023/08/30 03:06:13;;;;;;;;;3.00;3.00;;;;;18.45;57.54;100494.09;5057832;28;46737;-76
2023/08/30 03:08:39;;;;;;;;;2.50;2.50;;;;;18.34;57.87;100486.59;5074408;28;45327;-77
2023/08/30 03:11:10;;;;;;;;;3.00;3.00;;;;;18.23;57.59;100471.03;5058708;28;45482;-74
2023/08/30 03:13:36;;;;;;;;;2.67;2.67;;;;;17.94;57.59;100424.53;5058317;28;45510;-76
2023/08/30 03:16:02;;;;;;;;;3.33;2.33;;;;;18.33;57.49;100492.19;5057572;28;46616;-75
2023/08/30 03:18:27;;;;;;;;;3.33;3.33;;;;;18.35;57.45;100490.13;5056914;28;45402;-80
2023/08/30 03:21:02;;;;;;;;;4.00;2.50;;;;;18.38;57.62;100487.03;5057428;28;45508;-73
2023/08/30 03:23:27;;;;;;;;;3.67;3.67;;;;;18.43;57.12;100485.41;5057731;28;45521;-76
2023/08/30 03:25:53;;;;;;;;;3.67;3.00;;;;;18.55;57.40;100491.84;5057251;28;46063;-77
2023/08/30 03:28:18;;;;;;;;;3.00;3.00;;;;;18.16;57.40;100430.63;5057721;28;45343;-75
2023/08/30 03:30:43;;;;;;;;;2.67;2.33;;;;;18.42;58.02;100475.66;5057422;28;45231;-76
2023/08/30 03:33:09;;;;;;;;;1.67;1.67;;;;;18.53;58.46;100493.91;5070062;27;45524;-76
2023/08/30 03:35:35;;;;;;;;;4.67;2.00;;;;;18.46;58.71;100478.78;5046116;28;63770;-75
2023/08/30 03:38:00;;;;;;;;;2.67;2.67;;;;;18.38;58.92;100474.38;5070017;28;45310;-76
2023/08/30 03:40:27;;;;;;;;;2.67;2.67;;;;;18.47;59.23;100480.44;5078227;27;45246;-74
2023/08/30 03:42:52;;;;;;;;;2.33;2.33;;;;;18.54;58.88;100490.19;5057506;28;46357;-75
2023/08/30 03:45:18;;;;;;;;;4.67;3.00;;;;;18.60;58.90;100487.72;5057171;28;46612;-74
2023/08/30 03:47:43;;;;;;;;;4.67;3.67;;;;;18.45;58.70;100448.34;5055826;28;46075;-72
2023/08/30 03:50:09;;;;;;;;;2.00;2.00;;;;;18.63;58.92;100479.28;5056997;28;45598;-73
2023/08/30 03:52:35;;;;;;;;;4.33;4.33;;;;;18.57;59.14;100462.03;5057215;28;45370;-74
2023/08/30 03:55:00;;;;;;;;;3.00;3.00;;;;;18.37;59.02;100434.22;5057078;28;46731;-74
2023/08/30 03:57:26;;;;;;;;;2.00;2.00;;;;;18.69;58.48;100478.47;5056639;28;45398;-74
2023/08/30 03:59:51;;;;;;;;;3.00;3.00;;;;;18.58;58.72;100462.84;5069730;28;45323;-75
2023/08/30 04:02:16;;;;;;;;;2.33;2.00;;;;;18.62;58.80;100470.34;5057009;28;45469;-74
2023/08/30 04:04:42;;;;;;;;;5.67;3.33;;;;;18.27;58.97;100418.47;5057342;28;45593;-74
2023/08/30 04:07:07;;;;;;;;;3.00;3.00;;;;;18.53;58.54;100460.78;5073010;28;45712;-75
2023/08/30 04:09:32;;;;;;;;;2.67;2.67;;;;;18.57;59.10;100469.28;5056954;28;45563;-72
2023/08/30 04:11:59;;;;;;;;;2.00;2.00;;;;;18.53;59.72;100467.00;5072874;27;45510;-74
2023/08/30 04:14:24;;;;;;;;;3.00;3.00;;;;;18.23;59.63;100418.06;5055196;28;47348;-74
2023/08/30 04:16:50;;;;;;;;;2.33;2.33;;;;;18.50;59.75;100456.63;5068863;27;45455;-75
2023/08/30 04:19:15;;;;;;;;;2.67;2.67;;;;;18.46;60.06;100459.94;5045399;28;45315;-75
2023/08/30 04:21:40;;;;;;;;;3.33;3.00;;;;;18.53;60.38;100460.78;5068706;28;45610;-77
2023/08/30 04:24:06;;;;;;;;;3.67;3.67;;;;;18.43;60.81;100455.78;5061345;27;46046;-74
2023/08/30 04:26:31;;;;;;;;;5.00;2.33;;;;;18.27;61.01;100437.31;5056291;28;45471;-73
2023/08/30 04:28:56;;;;;;;;;4.00;3.00;;;;;18.23;61.25;100433.38;5056319;28;54090;-75
2023/08/30 04:31:22;;;;;;;;;4.00;4.00;;;;;18.41;61.10;100463.22;5056976;28;45193;-74
2023/08/30 04:33:47;;;;;;;;;2.00;2.00;;;;;18.42;61.46;100453.28;5056733;28;45651;-74
2023/08/30 04:36:12;;;;;;;;;3.00;3.00;;;;;18.43;61.42;100450.41;5056662;28;45611;-76
2023/08/30 04:38:38;;;;;;;;;4.00;2.00;;;;;18.36;61.83;100441.47;5056460;28;45430;-76
2023/08/30 04:41:03;;;;;;;;;3.00;3.00;;;;;18.36;61.77;100441.47;5056556;28;45622;-74
2023/08/30 04:43:28;;;;;;;;;4.00;2.67;;;;;18.03;61.96;100392.94;5056249;28;46419;-75
2023/08/30 04:45:54;;;;;;;;;4.67;4.67;;;;;18.18;61.93;100425.88;5056233;28;46205;-73
2023/08/30 04:48:19;;;;;;;;;3.00;3.00;;;;;18.31;62.34;100435.88;5059810;28;46470;-76
2023/08/30 04:50:44;;;;;;;;;4.00;4.00;;;;;18.32;62.41;100437.53;5059588;28;45302;-74
2023/08/30 04:53:10;;;;;;;;;6.00;4.67;;;;;18.34;62.48;100438.16;5059685;28;45542;-73
2023/08/30 04:55:35;;;;;;;;;6.67;4.00;;;;;17.96;62.64;100388.53;5060491;28;45394;-75
2023/08/30 04:58:00;;;;;;;;;3.67;3.67;;;;;18.26;63.13;100442.91;5059429;28;45483;-74
2023/08/30 05:00:26;;;;;;;;;2.33;2.33;;;;;18.10;63.20;100414.47;5061174;28;45293;-77
2023/08/30 05:02:51;;;;;;;;;4.00;2.33;;;;;18.13;63.51;100424.81;5060492;28;45940;-74
2023/08/30 05:05:17;;;;;;;;;3.67;3.33;;;;;18.17;63.56;100436.84;5063965;28;45508;-73
2023/08/30 05:07:42;;;;;;;;;3.67;3.00;;;;;18.20;63.53;100428.34;5059950;28;45459;-75
2023/08/30 05:10:08;;;;;;;;;4.00;3.00;;;;;18.09;63.83;100415.50;5075694;27;45497;-74
2023/08/30 05:12:34;;;;;;;;;3.00;3.00;;;;;18.09;63.49;100410.13;5059585;28;46775;-76
2023/08/30 05:15:00;;;;;;;;;3.00;3.00;;;;;17.96;63.48;100388.53;5059359;28;45247;-74
2023/08/30 05:17:26;;;;;;;;;3.00;3.00;;;;;18.20;63.51;100418.44;5059438;28;45379;-74
2023/08/30 05:19:52;;;;;;;;;3.67;3.67;;;;;18.09;63.69;100399.34;5059585;28;45148;-77
2023/08/30 05:22:17;;;;;;;;;2.67;2.67;;;;;17.90;63.58;100374.03;5071656;28;47690;-74
2023/08/30 05:24:42;;;;;;;;;4.67;3.00;;;;;17.91;64.01;100392.66;5078364;28;58841;-74
2023/08/30 05:27:07;;;;;;;;;3.33;3.33;;;;;18.07;64.24;100413.00;5059233;28;53472;-76
2023/08/30 05:29:33;;;;;;;;;7.00;3.00;;;;;17.86;63.91;100397.00;5058406;28;45237;-74
2023/08/30 05:31:58;;;;;;;;;4.33;3.67;;;;;17.98;64.22;100405.31;5059136;28;45326;-76
2023/08/30 05:34:25;;;;;;;;;5.33;4.67;;;;;18.09;64.49;100426.25;5059474;28;45414;-74
2023/08/30 05:36:50;;;;;;;;;3.00;3.00;;;;;18.09;64.38;100420.88;5057787;28;45450;-76
2023/08/30 05:39:16;;;;;;;;;5.50;4.00;;;;;18.05;63.98;100411.56;5059555;28;45341;-75
2023/08/30 05:41:41;;;;;;;;;4.00;4.00;;;;;18.18;63.69;100428.56;5067023;28;45541;-74
2023/08/30 05:44:07;;;;;;;;;5.00;4.00;;;;;18.05;63.71;100408.88;5074800;27;46125;-75
2023/08/30 05:46:32;;;;;;;;;9.67;6.33;;;;;18.19;63.62;100421.31;5059035;28;45498;-76
2023/08/30 05:48:57;;;;;;;;;5.00;4.33;;;;;18.02;64.73;100390.41;5058860;28;45328;-75
2023/08/30 05:51:23;;;;;;;;;3.67;3.00;;;;;18.20;64.56;100421.13;5058818;28;45548;-76
2023/08/30 05:53:48;;;;;;;;;4.33;3.67;;;;;18.27;64.35;100431.94;5071116;28;45392;-75
2023/08/30 05:56:13;;;;;;;;;4.33;3.00;;;;;18.24;64.42;100424.25;5082699;27;45217;-75
2023/08/30 05:58:39;;;;;;;;;1.00;1.00;;;;;18.29;64.55;100427.16;5059221;28;45177;-74
2023/08/30 06:01:06;;;;;;;;;3.67;3.67;;;;;18.21;64.21;100427.31;5061691;28;46131;-75
2023/08/30 06:03:32;;;;;;;;;3.33;3.33;;;;;18.19;64.39;100411.38;5088109;27;45222;-74
2023/08/30 06:05:57;;;;;;;;;4.00;4.00;;;;;18.26;64.04;100419.50;5058855;28;45162;-74
2023/08/30 06:08:23;;;;;;;;;4.67;3.33;;;;;18.47;63.78;100448.97;5059027;28;45428;-76
2023/08/30 06:10:48;;;;;;;;;3.00;3.00;;;;;18.53;63.59;100460.78;5058263;28;46054;-81
2023/08/30 06:13:13;;;;;;;;;5.33;4.00;;;;;18.26;63.68;100406.03;5041523;28;45484;-76
2023/08/30 06:15:39;;;;;;;;;3.00;3.00;;;;;18.55;64.67;100448.78;5058523;28;45451;-77
2023/08/30 06:18:04;;;;;;;;;4.33;4.00;;;;;18.68;64.84;100455.25;5057232;28;45454;-76
2023/08/30 06:20:30;;;;;;;;;4.67;4.67;;;;;18.68;65.04;100455.25;5059747;28;46615;-75
2023/08/30 06:22:58;;;;;;;;;5.00;3.33;;;;;18.54;64.72;100436.34;5058471;28;45481;-75
2023/08/30 06:25:23;;;;;;;;;7.33;7.33;;;;;18.50;64.52;100424.31;5058388;28;45447;-74
2023/08/30 06:27:57;;;;;;;;;3.67;3.00;;;;;18.71;64.40;100441.38;5066171;28;45398;-76
2023/08/30 06:30:23;;;;;;;;;3.75;3.75;;;;;18.76;64.35;100452.38;5067054;27;45712;-75
2023/08/30 06:32:49;;;;;;;;;3.67;3.67;;;;;18.61;64.24;100420.19;5058537;28;45438;-75
2023/08/30 06:35:14;;;;;;;;;7.00;5.00;;;;;18.58;63.77;100414.41;5058047;28;45275;-76
2023/08/30 06:37:40;;;;;;;;;4.00;4.00;;;;;18.69;64.00;100430.00;5056868;28;45245;-74
2023/08/30 06:40:06;;;;;;;;;4.00;4.00;;;;;18.82;63.71;100443.47;5057934;28;45533;-75
2023/08/30 06:42:31;;;;;;;;;3.33;3.33;;;;;18.82;63.89;100443.47;5057711;28;45475;-75
2023/08/30 06:44:57;;;;;;;;;4.67;3.33;;;;;18.86;63.39;100439.34;5057921;28;45482;-77
2023/08/30 06:47:22;;;;;;;;;5.00;4.00;;;;;19.07;63.78;100449.94;5060179;28;45480;-76
2023/08/30 06:49:47;;;;;;;;;4.67;4.67;;;;;19.17;62.71;100451.38;5058836;28;46755;-74
2023/08/30 06:52:13;;;;;;;;;3.33;2.33;;;;;19.11;62.43;100461.13;5056411;28;45483;-76
2023/08/30 06:54:38;;;;;;;;;3.67;3.00;;;;;19.13;62.25;100467.97;5058254;28;45577;-76
2023/08/30 06:57:05;;;;;;;;;2.00;2.00;;;;;19.15;62.32;100457.81;5058220;28;45490;-74
2023/08/30 06:59:31;;;;;;;;;2.67;2.00;;;;;19.13;62.51;100454.50;5057116;27;46207;-74
2023/08/30 07:01:56;;;;;;;;;3.00;3.00;;;;;19.25;62.53;100453.88;5055756;28;52377;-74
2023/08/30 07:04:21;;;;;;;;;4.33;4.33;;;;;19.34;62.57;100461.53;5056860;28;54713;-75
2023/08/30 07:06:47;;;;;;;;;4.50;3.00;;;;;19.25;62.48;100432.31;5058048;28;45308;-74
2023/08/30 07:09:12;;;;;;;;;2.00;2.00;;;;;19.49;61.52;100465.88;5071661;27;47696;-72
2023/08/30 07:11:38;;;;;;;;;2.00;2.00;;;;;19.40;61.14;100454.47;5076482;27;45426;-75
2023/08/30 07:14:04;;;;;;;;;2.00;2.00;;;;;19.44;61.11;100451.19;5060562;27;45371;-73
2023/08/30 07:16:31;;;;;;;;;1.67;1.67;;;;;19.48;60.94;100453.44;5060072;28;45276;-75
2023/08/30 07:18:57;;;;;;;;;2.33;2.33;;;;;19.60;60.68;100467.97;5073002;27;48448;-76
2023/08/30 07:21:22;;;;;;;;;3.00;3.00;;;;;19.58;60.73;100452.00;5072922;27;45356;-77
2023/08/30 07:23:47;;;;;;;;;4.67;4.67;;;;;19.65;60.79;100447.44;5057140;28;45352;-76
2023/08/30 07:26:13;;;;;;;;;2.33;1.67;;;;;19.74;60.00;100459.66;5057352;28;45374;-72
2023/08/30 07:28:38;;;;;;;;;1.67;1.67;;;;;19.72;59.84;100456.34;5055310;28;47277;-72
2023/08/30 07:31:04;;;;;;;;;5.67;2.33;;;;;19.66;59.75;100451.78;5065593;27;45363;-70
2023/08/30 07:33:30;;;;;;;;;1.00;1.00;;;;;19.74;59.83;100453.44;5064194;27;45804;-71
2023/08/30 07:35:55;;;;;;;;;4.33;2.00;;;;;19.82;59.42;100447.78;5056439;28;45462;-72
2023/08/30 07:38:20;;;;;;;;;3.00;3.00;;;;;19.79;59.17;100423.94;5056650;28;46553;-76
2023/08/30 07:40:46;;;;;;;;;3.00;3.00;;;;;20.08;58.79;100444.19;5057044;28;45523;-75
2023/08/30 07:43:11;;;;;;;;;3.00;1.00;;;;;20.24;58.07;100451.00;5072775;28;45407;-73
2023/08/30 07:45:36;;;;;;;;;1.67;1.67;;;;;20.43;57.78;100446.59;5083391;27;45530;-74
2023/08/30 07:48:02;;;;;;;;;3.67;2.33;;;;;20.73;56.74;100460.31;5057079;28;49793;-75
2023/08/30 07:50:27;;;;;;;;;1.00;1.00;;;;;20.91;55.76;100442.31;5056302;28;45573;-75
2023/08/30 07:52:53;;;;;;;;;5.33;2.67;;;;;21.03;55.48;100404.63;5056401;28;45315;-74
2023/08/30 07:55:18;;;;;;;;;3.67;2.67;;;;;21.81;54.36;100458.19;5056631;28;45348;-74
2023/08/30 07:57:43;;;;;;;;;3.00;1.33;;;;;22.14;52.90;100455.97;5085944;27;48432;-74
2023/08/30 08:00:09;;;;;;;;;2.00;2.00;;;;;22.35;51.90;100441.13;5063932;28;45418;-75
2023/08/30 08:02:35;;;;;;;;;2.00;2.00;;;;;22.55;51.63;100453.56;5071999;27;45535;-77
2023/08/30 08:05:00;;;;;;;;;3.00;2.00;;;;;22.54;51.41;100441.91;5073112;27;45348;-73
2023/08/30 08:07:25;;;;;;;;;3.00;3.00;;;;;22.62;50.87;100455.13;5056121;28;45654;-78
2023/08/30 08:09:51;;;;;;;;;2.00;2.00;;;;;22.62;50.91;100447.00;5055979;28;45470;-75
2023/08/30 08:12:16;;;;;;;;;3.00;3.00;;;;;22.72;50.43;100447.28;5059124;28;45563;-74
2023/08/30 08:14:43;;;;;;;;;1.00;1.00;;;;;22.93;49.82;100458.69;5071793;27;45542;-75
2023/08/30 08:17:08;;;;;;;;;1.00;1.00;;;;;23.06;49.09;100455.78;5071467;27;47619;-74
2023/08/30 08:19:38;;;;;;;;;2.25;2.25;;;;;22.82;49.05;100421.50;5055794;28;45523;-74
2023/08/30 08:22:04;;;;;;;;;2.75;1.00;;;;;22.90;49.22;100440.19;5059510;28;45466;-74
2023/08/30 08:24:29;;;;;;;;;2.00;1.00;;;;;23.09;48.23;100462.63;5060074;28;45211;-73
2023/08/30 08:26:54;;;;;;;;;1.00;0.00;;;;;23.11;48.54;100458.59;5058949;28;61434;-74
2023/08/30 08:29:20;;;;;;;;;1.25;1.25;;;;;23.11;47.99;100455.91;5058534;28;46248;-74
2023/08/30 08:31:45;;;;;;;;;4.00;3.00;;;;;23.23;47.63;100462.19;5059864;28;48438;-75
2023/08/30 08:34:12;;;;;;;;;2.25;1.75;;;;;23.30;47.61;100454.75;5060490;28;45423;-74
2023/08/30 08:36:38;;;;;;;;;4.00;1.00;;;;;23.35;46.89;100459.47;5059801;28;46937;-73
2023/08/30 08:39:04;;;;;;;;;2.00;2.00;;;;;23.36;46.64;100463.81;5059593;28;45522;-75
2023/08/30 08:41:42;;;;;;;;;2.25;1.00;;;;;23.28;46.53;100451.44;5059759;28;45291;-75
2023/08/30 08:44:08;;;;;;;;;1.75;1.75;;;;;23.30;46.01;100457.44;5062388;28;45366;-75
2023/08/30 08:46:36;;;;;;;;;0.75;0.75;;;;;23.36;46.24;100461.09;5062848;27;46748;-74
2023/08/30 08:49:09;;;;;;;;;1.00;1.00;;;;;23.27;45.46;100451.69;5061018;28;45673;-75
2023/08/30 08:51:35;;;;;;;;;2.50;1.75;;;;;23.33;45.69;100456.97;5059921;28;45328;-73
2023/08/30 08:54:03;;;;;;;;;5.00;1.67;;;;;23.33;46.12;100465.13;5059582;28;45383;-74
2023/08/30 08:56:30;;;;;;;;;1.00;1.00;;;;;23.04;46.00;100436.19;5058961;28;47070;-72
2023/08/30 08:58:56;;;;;;;;;2.00;2.00;;;;;23.19;46.85;100479.13;5059723;28;45358;-71
2023/08/30 09:01:22;;;;;;;;;2.00;1.00;;;;;23.04;46.35;100466.03;5058340;28;45319;-73
2023/08/30 09:03:47;;;;;;;;;1.67;1.00;;;;;22.89;46.71;100462.91;5060220;28;45510;-73
2023/08/30 09:06:15;;;;;;;;;2.00;2.00;;;;;23.01;46.29;100466.47;5066104;28;46237;-75
2023/08/30 09:08:40;;;;;;;;;3.33;2.00;;;;;23.09;46.32;100474.28;5068916;27;45578;-75
2023/08/30 09:11:05;;;;;;;;;2.00;2.00;;;;;23.02;46.22;100452.69;5057894;28;45360;-79
2023/08/30 09:13:31;;;;;;;;;2.00;2.00;;;;;22.86;45.77;100431.69;5064419;28;45246;-77
2023/08/30 09:15:57;;;;;;;;;2.00;2.00;;;;;23.14;45.22;100420.16;5059128;28;46001;-73
2023/08/30 09:18:27;;;;;;;;;3.00;2.00;;;;;23.57;44.45;100470.59;5057172;28;45871;-74
2023/08/30 09:21:11;;;;;;;;;2.75;2.00;;;;;23.58;44.22;100478.50;5065353;28;45418;-75
2023/08/30 09:23:37;;;;;;;;;3.67;3.67;;;;;23.57;43.71;100476.00;5057625;28;45503;-76
2023/08/30 09:26:04;;;;;;;;;0.25;0.25;;;;;23.57;43.63;100476.00;5058931;28;46355;-70
2023/08/30 09:28:29;;;;;;;;;3.00;2.00;;;;;23.57;42.87;100471.41;5058560;28;45742;-70
2023/08/30 09:30:59;;;;;;;;;2.50;2.00;;;;;23.72;43.16;100476.38;5058851;28;45505;-69
2023/08/30 09:33:32;;;;;;;;;2.50;2.50;;;;;23.85;42.69;100468.00;5058279;28;46310;-69
2023/08/30 09:35:59;;;;;;;;;1.00;1.00;;;;;23.98;42.21;100431.59;5058208;28;45913;-78
2023/08/30 09:38:25;;;;;;;;;2.00;2.00;;;;;24.63;40.73;100458.47;5062229;28;45628;-70
2023/08/30 09:40:50;;;;;;;;;2.00;2.00;;;;;24.99;39.92;100462.66;5059022;28;45514;-71
2023/08/30 09:43:19;;;;;;;;;5.00;4.00;;;;;25.85;38.44;100456.97;5058676;28;45826;-70
2023/08/30 09:45:44;;;;;;;;;1.00;1.00;;;;;26.12;37.54;100432.50;5064702;28;47585;-70
2023/08/30 09:48:10;;;;;;;;;1.75;1.00;;;;;26.81;36.17;100449.09;5057209;28;45773;-73
2023/08/30 09:50:36;;;;;;;;;1.25;1.00;;;;;26.90;36.30;100440.19;5058439;28;45265;-71
2023/08/30 09:53:15;;;;;;;;;1.25;1.25;;;;;26.72;35.77;100387.94;5058892;28;45173;-72
2023/08/30 09:55:42;;;;;;;;;1.00;1.00;;;;;27.67;35.28;100454.50;5057474;28;45758;-69
2023/08/30 09:58:08;;;;;;;;;3.25;2.00;;;;;28.50;34.14;100444.47;5057358;28;45387;-70
2023/08/30 10:00:34;;;;;;;;;2.67;2.00;;;;;29.73;32.22;100442.59;5066527;28;45342;-71
2023/08/30 10:02:59;;;;;;;;;3.00;3.00;;;;;30.90;30.07;100444.81;5062023;28;45321;-70
2023/08/30 10:05:26;;;;;;;;;4.33;3.33;;;;;31.94;28.81;100440.53;5057586;28;45877;-72
2023/08/30 10:07:52;;;;;;;;;4.67;3.00;;;;;32.68;26.83;100440.94;5061903;28;45412;-71
2023/08/30 10:10:20;;;;;;;;;2.00;2.00;;;;;32.67;25.48;100396.09;5057919;28;45412;-75
2023/08/30 10:12:46;;;;;;;;;1.67;1.67;;;;;33.01;25.32;100433.53;5058142;28;45381;-74
2023/08/30 10:15:11;;;;;;;;;2.33;2.33;;;;;32.73;25.27;100440.88;5058216;28;46052;-79
2023/08/30 10:17:40;;;;;;;;;5.00;3.33;;;;;32.35;25.81;100446.38;5073172;27;45380;-70
2023/08/30 10:20:07;;;;;;;;;1.00;1.00;;;;;31.86;26.00;100446.69;5070478;27;45398;-71
2023/08/30 10:22:36;;;;;;;;;3.00;1.33;;;;;31.28;27.18;100440.41;5059097;27;45279;-70
2023/08/30 10:25:05;;;;;;;;;2.00;2.00;;;;;30.59;27.27;100443.06;5069405;28;47913;-69
2023/08/30 10:27:36;;;;;;;;;4.25;3.00;;;;;30.09;28.12;100446.09;5054807;28;45379;-70
2023/08/30 10:30:06;;;;;;;;;4.00;3.67;;;;;29.61;28.40;100456.59;5070223;28;45514;-69
2023/08/30 10:32:31;;;;;;;;;2.00;0.00;;;;;29.18;28.28;100453.31;5056684;28;45515;-68
2023/08/30 10:35:01;;;;;;;;;5.00;3.67;;;;;28.70;28.56;100435.50;5056461;28;46472;-69
2023/08/30 10:37:27;;;;;;;;;5.33;3.67;;;;;28.24;28.90;100437.28;5056652;28;45336;-70
2023/08/30 10:39:53;;;;;;;;;2.00;2.00;;;;;27.62;29.05;100399.78;5058069;28;45555;-71
2023/08/30 10:42:23;;;;;;;;;5.33;5.33;;;;;27.37;29.75;100412.19;5073703;28;45664;-70
2023/08/30 10:44:57;;;;;;;;;5.00;2.00;;;;;27.21;30.44;100451.38;5056477;28;45923;-71
2023/08/30 10:47:29;;;;;;;;;5.00;2.33;;;;;26.79;30.67;100446.63;5057724;28;45235;-68
2023/08/30 10:49:59;;;;;;;;;3.00;3.00;;;;;26.56;31.10;100449.66;5057772;28;45316;-70
2023/08/30 10:52:26;;;;;;;;;4.00;4.00;;;;;26.43;30.92;100450.06;5057844;28;45455;-70
2023/08/30 10:54:51;;;;;;;;;8.00;4.33;;;;;26.28;30.80;100450.69;5057671;28;46825;-70
2023/08/30 10:57:35;;;;;;;;;3.33;3.33;;;;;26.10;30.25;100432.75;5057808;28;45270;-70
2023/08/30 11:00:20;;;;;;;;;2.33;2.33;;;;;26.10;31.02;100440.13;5056702;28;45478;-68
2023/08/30 11:02:48;;;;;;;;;4.00;2.67;;;;;26.05;31.84;100438.16;5057688;28;45326;-69
2023/08/30 11:05:16;;;;;;;;;5.33;4.00;;;;;26.03;31.15;100445.75;5057570;28;45652;-69
2023/08/30 11:07:46;;;;;;;;;4.67;3.00;;;;;26.02;31.72;100441.38;5057932;28;45544;-68
2023/08/30 11:10:11;;;;;;;;;2.75;2.75;;;;;25.99;31.94;100439.16;5056443;28;45399;-70
2023/08/30 11:12:40;;;;;;;;;5.00;5.00;;;;;25.81;31.92;100426.66;5057784;28;45276;-70
2023/08/30 11:15:08;;;;;;;;;6.00;6.00;;;;;25.79;32.50;100431.53;5057193;28;45946;-70
2023/08/30 11:17:33;;;;;;;;;3.67;3.67;;;;;25.74;32.43;100448.63;5072558;28;45659;-69
2023/08/30 11:20:09;;;;;;;;;4.00;4.00;;;;;25.43;32.10;100435.66;5057469;28;45500;-70
2023/08/30 11:22:47;;;;;;;;;3.67;3.67;;;;;25.35;32.90;100455.09;5057948;28;45391;-70